PWSweather.com
Personal Weather Stations
Station Observations
NORTHPOLE1
Tombur Subdivision, North Pole, AK 99705

Tombur SubdivisionNorth Pole, AK 99705

Lat: 64.774039, Lon: -147.284862

Elevation: 434

Station Type: Davis Vantage Pro 2

http://kl7ac.com

Latest ConditionsUpdated 3:45:00 AM AKST Wednesday, Aug 27, 2014
Currently Today's Max Today's Min Today's Average
Temperature 50.6°F10.3°C 51.7°F10.9°C 50.6°F10.3°C 51.2°F10.7°C
Dew Point 49.8°F9.9°C 50.7°F10.4°C 49.8°F9.9°C 50.3°F10.2°C
Winds 4.0 mph SW6.4 kmh SW 7.0 mph SW11.3 kmh SW - 3.7 mph 6.0 kmh
Wind Gusts 10.0 mph16.1 kmh 17.0 mph27.4 kmh - -
Humidity 97% 97% 96% 97%
Pressure 29.77 in1008.1 mb 29.77 in1008.1 mb 29.75 in1007.5 mb -
Precipitation - 0.01 in0.3 mm - -
Hour Temp Dew Point Humidity Winds Wind Gusts Pressure Precip Precip Rate Daily Precip Total
03:45 AM 50.6°F10.3°C 49.8°F9.9°C 97% 4.0 mph SW6.4 kmh SW 10.0 mph16.1 kmh 29.77 in1008.1 mb 0.00 in0.0 mm 0.00 in/hr0.0 mm/hr 0.01 in0.3 mm
03:40 AM 50.6°F10.3°C 49.8°F9.9°C 97% 4.0 mph SW6.4 kmh SW 10.0 mph16.1 kmh 29.77 in1008.1 mb 0.00 in0.0 mm 0.00 in/hr0.0 mm/hr 0.01 in0.3 mm
03:35 AM 50.7°F10.4°C 49.9°F9.9°C 97% 4.0 mph SW6.4 kmh SW 11.0 mph17.7 kmh 29.77 in1008.1 mb 0.00 in0.0 mm 0.00 in/hr0.0 mm/hr 0.01 in0.3 mm
03:30 AM 50.8°F10.4°C 50.0°F10.0°C 97% 4.0 mph SW6.4 kmh SW 12.0 mph19.3 kmh 29.77 in1008.1 mb 0.00 in0.0 mm 0.00 in/hr0.0 mm/hr 0.01 in0.3 mm
03:25 AM 50.8°F10.4°C 50.0°F10.0°C 97% 5.0 mph SW8.0 kmh SW 14.0 mph22.5 kmh 29.77 in1008.1 mb 0.00 in0.0 mm 0.00 in/hr0.0 mm/hr 0.01 in0.3 mm
03:20 AM 50.9°F10.5°C 50.1°F10.1°C 97% 4.0 mph SW6.4 kmh SW 14.0 mph22.5 kmh 29.77 in1008.1 mb 0.00 in0.0 mm 0.00 in/hr0.0 mm/hr 0.01 in0.3 mm
03:15 AM 51.0°F10.6°C 50.2°F10.1°C 97% 5.0 mph SW8.0 kmh SW 13.0 mph20.9 kmh 29.76 in1007.8 mb 0.00 in0.0 mm 0.00 in/hr0.0 mm/hr 0.01 in0.3 mm
03:10 AM 51.0°F10.6°C 50.2°F10.1°C 97% 6.0 mph SW9.7 kmh SW 15.0 mph24.1 kmh 29.77 in1008.1 mb 0.00 in0.0 mm 0.00 in/hr0.0 mm/hr 0.01 in0.3 mm
03:05 AM 51.1°F10.6°C 50.3°F10.2°C 97% 5.0 mph SW8.0 kmh SW 15.0 mph24.1 kmh 29.76 in1007.8 mb 0.00 in0.0 mm 0.00 in/hr0.0 mm/hr 0.01 in0.3 mm
03:00 AM 51.1°F10.6°C 50.3°F10.2°C 97% 5.0 mph SW8.0 kmh SW 13.0 mph20.9 kmh 29.76 in1007.8 mb 0.00 in0.0 mm 0.00 in/hr0.0 mm/hr 0.01 in0.3 mm
02:55 AM 51.1°F10.6°C 50.3°F10.2°C 97% 4.0 mph SW6.4 kmh SW 13.0 mph20.9 kmh 29.76 in1007.8 mb 0.00 in0.0 mm 0.00 in/hr0.0 mm/hr 0.01 in0.3 mm
02:50 AM 51.1°F10.6°C 50.3°F10.2°C 97% 4.0 mph SW6.4 kmh SW 11.0 mph17.7 kmh 29.76 in1007.8 mb 0.00 in0.0 mm 0.00 in/hr0.0 mm/hr 0.01 in0.3 mm
02:45 AM 51.0°F10.6°C 50.2°F10.1°C 97% 4.0 mph SW6.4 kmh SW 10.0 mph16.1 kmh 29.76 in1007.8 mb 0.00 in0.0 mm 0.00 in/hr0.0 mm/hr 0.01 in0.3 mm
02:40 AM 51.0°F10.6°C 50.2°F10.1°C 97% 5.0 mph SW8.0 kmh SW 11.0 mph17.7 kmh 29.76 in1007.8 mb 0.00 in0.0 mm 0.00 in/hr0.0 mm/hr 0.01 in0.3 mm
02:35 AM 51.0°F10.6°C 50.2°F10.1°C 97% 5.0 mph SW8.0 kmh SW 14.0 mph22.5 kmh 29.76 in1007.8 mb 0.00 in0.0 mm 0.00 in/hr0.0 mm/hr 0.01 in0.3 mm
02:30 AM 50.9°F10.5°C 50.1°F10.1°C 97% 5.0 mph SW8.0 kmh SW 14.0 mph22.5 kmh 29.76 in1007.8 mb 0.00 in0.0 mm 0.00 in/hr0.0 mm/hr 0.01 in0.3 mm
02:25 AM 50.9°F10.5°C 50.1°F10.1°C 97% 6.0 mph SW9.7 kmh SW 13.0 mph20.9 kmh 29.76 in1007.8 mb 0.00 in0.0 mm 0.00 in/hr0.0 mm/hr 0.01 in0.3 mm
02:20 AM 50.8°F10.4°C 50.0°F10.0°C 97% 6.0 mph SW9.7 kmh SW 14.0 mph22.5 kmh 29.76 in1007.8 mb 0.00 in0.0 mm 0.00 in/hr0.0 mm/hr 0.01 in0.3 mm
02:15 AM 50.8°F10.4°C 50.0°F10.0°C 97% 6.0 mph SW9.7 kmh SW 14.0 mph22.5 kmh 29.75 in1007.5 mb 0.00 in0.0 mm 0.00 in/hr0.0 mm/hr 0.01 in0.3 mm
02:10 AM 50.8°F10.4°C 50.0°F10.0°C 97% 5.0 mph SW8.0 kmh SW 14.0 mph22.5 kmh 29.76 in1007.8 mb 0.00 in0.0 mm 0.00 in/hr0.0 mm/hr 0.01 in0.3 mm
02:05 AM 50.8°F10.4°C 50.0°F10.0°C 97% 4.0 mph SW6.4 kmh SW 11.0 mph17.7 kmh 29.75 in1007.5 mb 0.00 in0.0 mm 0.00 in/hr0.0 mm/hr 0.01 in0.3 mm
02:00 AM 50.9°F10.5°C 50.1°F10.1°C 97% 4.0 mph SW6.4 kmh SW 12.0 mph19.3 kmh 29.76 in1007.8 mb 0.00 in0.0 mm 0.00 in/hr0.0 mm/hr 0.01 in0.3 mm
01:55 AM 51.0°F10.6°C 50.2°F10.1°C 97% 5.0 mph SW8.0 kmh SW 12.0 mph19.3 kmh 29.75 in1007.5 mb 0.00 in0.0 mm 0.00 in/hr0.0 mm/hr 0.01 in0.3 mm
01:50 AM 51.1°F10.6°C 50.3°F10.2°C 97% 6.0 mph SW9.7 kmh SW 15.0 mph24.1 kmh 29.75 in1007.5 mb 0.00 in0.0 mm 0.00 in/hr0.0 mm/hr 0.01 in0.3 mm
01:45 AM 51.2°F10.7°C 50.4°F10.2°C 97% 7.0 mph SW11.3 kmh SW 17.0 mph27.4 kmh 29.75 in1007.5 mb 0.00 in0.0 mm 0.00 in/hr0.0 mm/hr 0.01 in0.3 mm
01:40 AM 51.2°F10.7°C 50.4°F10.2°C 97% 7.0 mph SW11.3 kmh SW 17.0 mph27.4 kmh 29.75 in1007.5 mb 0.00 in0.0 mm 0.00 in/hr0.0 mm/hr 0.01 in0.3 mm
01:35 AM 51.3°F10.7°C 50.5°F10.3°C 97% 6.0 mph SW9.7 kmh SW 15.0 mph24.1 kmh 29.75 in1007.5 mb 0.00 in0.0 mm 0.00 in/hr0.0 mm/hr 0.01 in0.3 mm
01:30 AM 51.4°F10.8°C 50.6°F10.3°C 97% 6.0 mph SW9.7 kmh SW 15.0 mph24.1 kmh 29.75 in1007.5 mb 0.00 in0.0 mm 0.00 in/hr0.0 mm/hr 0.01 in0.3 mm
01:25 AM 51.4°F10.8°C 50.6°F10.3°C 97% 5.0 mph SW8.0 kmh SW 14.0 mph22.5 kmh 29.75 in1007.5 mb 0.00 in0.0 mm 0.00 in/hr0.0 mm/hr 0.01 in0.3 mm
01:20 AM 51.4°F10.8°C 50.6°F10.3°C 97% 4.0 mph SW6.4 kmh SW 14.0 mph22.5 kmh 29.75 in1007.5 mb 0.00 in0.0 mm 0.00 in/hr0.0 mm/hr 0.01 in0.3 mm
01:15 AM 51.4°F10.8°C 50.6°F10.3°C 97% 4.0 mph SSW6.4 kmh SSW 13.0 mph20.9 kmh 29.75 in1007.5 mb 0.00 in0.0 mm 0.00 in/hr0.0 mm/hr 0.01 in0.3 mm
01:10 AM 51.4°F10.8°C 50.6°F10.3°C 97% 3.0 mph SSW4.8 kmh SSW 10.0 mph16.1 kmh 29.75 in1007.5 mb 0.00 in0.0 mm 0.00 in/hr0.0 mm/hr 0.01 in0.3 mm
01:05 AM 51.4°F10.8°C 50.6°F10.3°C 97% 1.0 mph SSW1.6 kmh SSW 10.0 mph16.1 kmh 29.75 in1007.5 mb 0.00 in0.0 mm 0.00 in/hr0.0 mm/hr 0.01 in0.3 mm
01:00 AM 51.5°F10.8°C 50.7°F10.4°C 97% 1.0 mph SSE1.6 kmh SSE 5.0 mph8.0 kmh 29.75 in1007.5 mb 0.01 in0.3 mm 0.00 in/hr0.0 mm/hr 0.01 in0.3 mm
12:55 AM 51.5°F10.8°C 50.7°F10.4°C 97% 2.0 mph SE3.2 kmh SE 5.0 mph8.0 kmh 29.75 in1007.5 mb 0.01 in0.3 mm 0.00 in/hr0.0 mm/hr 0.01 in0.3 mm
12:50 AM 51.5°F10.8°C 50.7°F10.4°C 97% 1.0 mph SE1.6 kmh SE 5.0 mph8.0 kmh 29.75 in1007.5 mb 0.01 in0.3 mm 0.00 in/hr0.0 mm/hr 0.01 in0.3 mm
12:45 AM 51.5°F10.8°C 50.7°F10.4°C 97% 1.0 mph SE1.6 kmh SE 4.0 mph6.4 kmh 29.75 in1007.5 mb 0.01 in0.3 mm 0.00 in/hr0.0 mm/hr 0.01 in0.3 mm
12:40 AM 51.5°F10.8°C 50.7°F10.4°C 97% 1.0 mph SE1.6 kmh SE 4.0 mph6.4 kmh 29.75 in1007.5 mb 0.01 in0.3 mm 0.00 in/hr0.0 mm/hr 0.01 in0.3 mm
12:35 AM 51.5°F10.8°C 50.7°F10.4°C 97% 1.0 mph ESE1.6 kmh ESE 3.0 mph4.8 kmh 29.75 in1007.5 mb 0.01 in0.3 mm 0.00 in/hr0.0 mm/hr 0.01 in0.3 mm
12:30 AM 51.5°F10.8°C 50.7°F10.4°C 97% 1.0 mph ESE1.6 kmh ESE 3.0 mph4.8 kmh 29.75 in1007.5 mb 0.01 in0.3 mm 0.00 in/hr0.0 mm/hr 0.01 in0.3 mm
12:25 AM 51.5°F10.8°C 50.4°F10.2°C 96% 1.0 mph ESE1.6 kmh ESE 3.0 mph4.8 kmh 29.75 in1007.5 mb 0.01 in0.3 mm 0.00 in/hr0.0 mm/hr 0.01 in0.3 mm
12:20 AM 51.5°F10.8°C 50.4°F10.2°C 96% 1.0 mph ESE1.6 kmh ESE 3.0 mph4.8 kmh 29.75 in1007.5 mb 0.01 in0.3 mm 0.00 in/hr0.0 mm/hr 0.01 in0.3 mm
12:15 AM 51.6°F10.9°C 50.5°F10.3°C 96% 1.0 mph ESE1.6 kmh ESE 3.0 mph4.8 kmh 29.75 in1007.5 mb 0.01 in0.3 mm 0.00 in/hr0.0 mm/hr 0.01 in0.3 mm
12:10 AM 51.6°F10.9°C 50.5°F10.3°C 96% Calm Calm 3.0 mph4.8 kmh 29.75 in1007.5 mb 0.01 in0.3 mm 0.00 in/hr0.0 mm/hr 0.01 in0.3 mm
12:05 AM 51.6°F10.9°C 50.5°F10.3°C 96% 1.0 mph SW1.6 kmh SW 3.0 mph4.8 kmh 29.75 in1007.5 mb 0.01 in0.3 mm 0.12 in/hr3.0 mm/hr 0.01 in0.3 mm
12:00 AM 51.7°F10.9°C 50.6°F10.3°C 96% Calm Calm 2.0 mph3.2 kmh 29.75 in1007.5 mb 0.00 in0.0 mm 0.00 in/hr0.0 mm/hr 0.00 in0.0 mm